sensor_id;sensor_type;location;lat;lon;timestamp;pressure;altitude;pressure_sealevel;temperature;humidity
5777;BME280;2914;42.668;23.346;2023-04-29T00:00:22;94550.50;;;11.32;54.17
5777;BME280;2914;42.668;23.346;2023-04-29T00:02:51;94549.03;;;11.34;53.84
5777;BME280;2914;42.668;23.346;2023-04-29T00:05:20;94549.27;;;11.13;53.16
5777;BME280;2914;42.668;23.346;2023-04-29T00:07:49;94545.38;;;10.69;53.38
5777;BME280;2914;42.668;23.346;2023-04-29T00:10:18;94543.94;;;10.85;53.56
5777;BME280;2914;42.668;23.346;2023-04-29T00:12:47;94549.16;;;10.81;54.39
5777;BME280;2914;42.668;23.346;2023-04-29T00:15:18;94546.17;;;10.56;54.65
5777;BME280;2914;42.668;23.346;2023-04-29T00:17:48;94544.06;;;10.69;54.53
5777;BME280;2914;42.668;23.346;2023-04-29T00:20:17;94553.17;;;10.61;54.68
5777;BME280;2914;42.668;23.346;2023-04-29T00:22:46;94560.66;;;10.76;54.57
5777;BME280;2914;42.668;23.346;2023-04-29T00:25:16;94554.67;;;10.74;54.61
5777;BME280;2914;42.668;23.346;2023-04-29T00:27:45;94553.44;;;10.92;54.12
5777;BME280;2914;42.668;23.346;2023-04-29T00:30:14;94558.75;;;10.82;54.47
5777;BME280;2914;42.668;23.346;2023-04-29T00:32:43;94558.69;;;10.78;54.37
5777;BME280;2914;42.668;23.346;2023-04-29T00:35:13;94566.07;;;10.98;54.25
5777;BME280;2914;42.668;23.346;2023-04-29T00:37:43;94566.59;;;11.01;53.96
5777;BME280;2914;42.668;23.346;2023-04-29T00:40:12;94559.73;;;11.05;53.53
5777;BME280;2914;42.668;23.346;2023-04-29T00:42:43;94557.19;;;10.89;54.26
5777;BME280;2914;42.668;23.346;2023-04-29T00:45:12;94560.24;;;10.71;54.48
5777;BME280;2914;42.668;23.346;2023-04-29T00:47:41;94561.39;;;10.82;55.81
5777;BME280;2914;42.668;23.346;2023-04-29T00:50:12;94556.52;;;10.87;54.71
5777;BME280;2914;42.668;23.346;2023-04-29T00:52:42;94553.69;;;10.98;53.77
5777;BME280;2914;42.668;23.346;2023-04-29T00:55:13;94553.91;;;10.77;54.55
5777;BME280;2914;42.668;23.346;2023-04-29T00:57:42;94548.25;;;10.62;54.72
5777;BME280;2914;42.668;23.346;2023-04-29T01:00:12;94539.81;;;10.29;55.12
5777;BME280;2914;42.668;23.346;2023-04-29T01:02:44;94534.70;;;10.18;56.21
5777;BME280;2914;42.668;23.346;2023-04-29T01:05:14;94535.17;;;10.08;56.58
5777;BME280;2914;42.668;23.346;2023-04-29T01:07:51;94525.11;;;9.68;59.82
5777;BME280;2914;42.668;23.346;2023-04-29T01:10:23;94516.94;;;10.10;58.59
5777;BME280;2914;42.668;23.346;2023-04-29T01:12:56;94516.94;;;10.10;58.59
5777;BME280;2914;42.668;23.346;2023-04-29T01:15:28;94516.91;;;10.30;57.90
5777;BME280;2914;42.668;23.346;2023-04-29T01:18:03;94525.17;;;10.41;57.18
5777;BME280;2914;42.668;23.346;2023-04-29T01:20:32;94521.05;;;10.52;56.99
5777;BME280;2914;42.668;23.346;2023-04-29T01:23:02;94523.48;;;10.59;56.79
5777;BME280;2914;42.668;23.346;2023-04-29T01:25:31;94520.79;;;10.55;56.60
5777;BME280;2914;42.668;23.346;2023-04-29T01:28:11;94510.23;;;10.45;57.27
5777;BME280;2914;42.668;23.346;2023-04-29T01:30:41;94510.19;;;10.51;57.10
5777;BME280;2914;42.668;23.346;2023-04-29T01:33:13;94509.19;;;10.52;56.83
5777;BME280;2914;42.668;23.346;2023-04-29T01:35:49;94513.49;;;10.53;56.98
5777;BME280;2914;42.668;23.346;2023-04-29T01:38:25;94519.85;;;10.60;56.78
5777;BME280;2914;42.668;23.346;2023-04-29T01:40:58;94520.27;;;10.65;56.39
5777;BME280;2914;42.668;23.346;2023-04-29T01:43:28;94515.54;;;10.69;56.48
5777;BME280;2914;42.668;23.346;2023-04-29T01:45:58;94508.80;;;10.71;56.71
5777;BME280;2914;42.668;23.346;2023-04-29T01:48:28;94516.06;;;10.73;56.96
5777;BME280;2914;42.668;23.346;2023-04-29T01:50:57;94511.79;;;10.72;57.36
5777;BME280;2914;42.668;23.346;2023-04-29T01:53:26;94513.93;;;10.72;56.94
5777;BME280;2914;42.668;23.346;2023-04-29T01:55:55;94516.01;;;10.68;57.34
5777;BME280;2914;42.668;23.346;2023-04-29T01:58:24;94512.00;;;10.64;57.93
5777;BME280;2914;42.668;23.346;2023-04-29T02:00:54;94508.69;;;10.62;58.30
5777;BME280;2914;42.668;23.346;2023-04-29T02:03:23;94509.36;;;10.64;58.45
5777;BME280;2914;42.668;23.346;2023-04-29T02:05:52;94506.45;;;10.67;58.32
5777;BME280;2914;42.668;23.346;2023-04-29T02:08:21;94507.66;;;10.59;58.46
5777;BME280;2914;42.668;23.346;2023-04-29T02:10:54;94516.10;;;10.63;58.25
5777;BME280;2914;42.668;23.346;2023-04-29T02:13:23;94514.43;;;10.62;58.61
5777;BME280;2914;42.668;23.346;2023-04-29T02:15:53;94514.20;;;10.55;59.02
5777;BME280;2914;42.668;23.346;2023-04-29T02:18:22;94515.74;;;10.38;59.95
5777;BME280;2914;42.668;23.346;2023-04-29T02:20:51;94512.75;;;10.37;60.05
5777;BME280;2914;42.668;23.346;2023-04-29T02:23:21;94513.87;;;10.15;61.08
5777;BME280;2914;42.668;23.346;2023-04-29T02:25:50;94515.21;;;9.85;63.01
5777;BME280;2914;42.668;23.346;2023-04-29T02:28:19;94514.32;;;9.81;63.61
5777;BME280;2914;42.668;23.346;2023-04-29T02:30:50;94514.03;;;9.74;64.34
5777;BME280;2914;42.668;23.346;2023-04-29T02:33:19;94506.20;;;9.68;64.85
5777;BME280;2914;42.668;23.346;2023-04-29T02:35:48;94511.80;;;9.70;65.16
5777;BME280;2914;42.668;23.346;2023-04-29T02:38:17;94505.78;;;9.73;64.44
5777;BME280;2914;42.668;23.346;2023-04-29T02:40:46;94505.78;;;9.73;64.44
5777;BME280;2914;42.668;23.346;2023-04-29T02:43:15;94516.03;;;9.76;64.62
5777;BME280;2914;42.668;23.346;2023-04-29T02:45:44;94517.56;;;9.79;64.15
5777;BME280;2914;42.668;23.346;2023-04-29T02:48:13;94514.64;;;9.82;63.98
5777;BME280;2914;42.668;23.346;2023-04-29T02:50:43;94519.66;;;9.85;63.71
5777;BME280;2914;42.668;23.346;2023-04-29T02:53:13;94514.58;;;9.78;64.09
5777;BME280;2914;42.668;23.346;2023-04-29T02:55:43;94513.26;;;9.78;63.67
5777;BME280;2914;42.668;23.346;2023-04-29T02:58:12;94513.11;;;9.70;64.23
5777;BME280;2914;42.668;23.346;2023-04-29T03:00:41;94522.19;;;9.71;63.72
5777;BME280;2914;42.668;23.346;2023-04-29T03:03:10;94522.19;;;9.71;63.72
5777;BME280;2914;42.668;23.346;2023-04-29T03:05:39;94545.64;;;9.39;67.16
5777;BME280;2914;42.668;23.346;2023-04-29T03:08:12;94545.64;;;9.39;67.16
5777;BME280;2914;42.668;23.346;2023-04-29T03:10:41;94539.14;;;9.43;65.74
5777;BME280;2914;42.668;23.346;2023-04-29T03:13:09;94539.71;;;9.47;64.75
5777;BME280;2914;42.668;23.346;2023-04-29T03:15:39;94527.78;;;9.43;64.11
5777;BME280;2914;42.668;23.346;2023-04-29T03:18:08;94534.48;;;9.31;65.02
5777;BME280;2914;42.668;23.346;2023-04-29T03:20:37;94527.41;;;9.32;64.79
5777;BME280;2914;42.668;23.346;2023-04-29T03:23:06;94527.41;;;9.32;64.79
5777;BME280;2914;42.668;23.346;2023-04-29T03:25:35;94535.31;;;9.32;65.00
5777;BME280;2914;42.668;23.346;2023-04-29T03:28:04;94543.37;;;9.40;64.76
5777;BME280;2914;42.668;23.346;2023-04-29T03:30:34;94543.37;;;9.40;64.76
5777;BME280;2914;42.668;23.346;2023-04-29T03:33:03;94550.84;;;9.45;64.67
5777;BME280;2914;42.668;23.346;2023-04-29T03:35:32;94544.55;;;9.42;64.53
5777;BME280;2914;42.668;23.346;2023-04-29T03:38:01;94564.72;;;9.47;65.01
5777;BME280;2914;42.668;23.346;2023-04-29T03:40:30;94564.72;;;9.47;65.01
5777;BME280;2914;42.668;23.346;2023-04-29T03:42:59;94566.84;;;9.38;66.08
5777;BME280;2914;42.668;23.346;2023-04-29T03:45:28;94566.84;;;9.38;66.08
5777;BME280;2914;42.668;23.346;2023-04-29T03:47:58;94574.60;;;9.39;65.65
5777;BME280;2914;42.668;23.346;2023-04-29T03:50:27;94574.60;;;9.39;65.65
5777;BME280;2914;42.668;23.346;2023-04-29T03:52:56;94563.09;;;9.30;65.63
5777;BME280;2914;42.668;23.346;2023-04-29T03:55:25;94569.42;;;9.18;67.15
5777;BME280;2914;42.668;23.346;2023-04-29T03:57:54;94557.24;;;9.02;67.92
5777;BME280;2914;42.668;23.346;2023-04-29T04:00:24;94557.24;;;9.02;67.92
5777;BME280;2914;42.668;23.346;2023-04-29T04:02:53;94562.44;;;8.13;71.86
5777;BME280;2914;42.668;23.346;2023-04-29T04:05:22;94556.55;;;8.21;72.65
5777;BME280;2914;42.668;23.346;2023-04-29T04:07:52;94556.55;;;8.21;72.65
5777;BME280;2914;42.668;23.346;2023-04-29T04:10:21;94558.98;;;8.33;73.09
5777;BME280;2914;42.668;23.346;2023-04-29T04:12:50;94558.98;;;8.33;73.09
5777;BME280;2914;42.668;23.346;2023-04-29T04:15:20;94570.64;;;8.83;70.64
5777;BME280;2914;42.668;23.346;2023-04-29T04:17:49;94570.64;;;8.83;70.64
5777;BME280;2914;42.668;23.346;2023-04-29T04:20:18;94570.45;;;8.96;70.26
5777;BME280;2914;42.668;23.346;2023-04-29T04:22:47;94570.45;;;8.96;70.26
5777;BME280;2914;42.668;23.346;2023-04-29T04:25:16;94571.25;;;9.12;70.38
5777;BME280;2914;42.668;23.346;2023-04-29T04:27:45;94565.78;;;9.25;69.70
5777;BME280;2914;42.668;23.346;2023-04-29T04:30:14;94571.37;;;9.41;68.86
5777;BME280;2914;42.668;23.346;2023-04-29T04:32:43;94558.06;;;9.43;68.60
5777;BME280;2914;42.668;23.346;2023-04-29T04:35:12;94557.72;;;9.16;70.73
5777;BME280;2914;42.668;23.346;2023-04-29T04:37:41;94561.97;;;9.23;70.98
5777;BME280;2914;42.668;23.346;2023-04-29T04:40:13;94554.58;;;9.42;71.69
5777;BME280;2914;42.668;23.346;2023-04-29T04:42:42;94566.64;;;9.70;70.54
5777;BME280;2914;42.668;23.346;2023-04-29T04:45:11;94566.64;;;9.70;70.54
5777;BME280;2914;42.668;23.346;2023-04-29T04:47:41;94571.58;;;9.98;69.94
5777;BME280;2914;42.668;23.346;2023-04-29T04:50:10;94573.46;;;10.02;69.22
5777;BME280;2914;42.668;23.346;2023-04-29T04:52:40;94573.46;;;10.02;69.22
5777;BME280;2914;42.668;23.346;2023-04-29T04:55:10;94578.30;;;10.07;69.47
5777;BME280;2914;42.668;23.346;2023-04-29T04:57:39;94572.85;;;10.14;69.25
5777;BME280;2914;42.668;23.346;2023-04-29T05:00:11;94572.85;;;10.14;69.25
5777;BME280;2914;42.668;23.346;2023-04-29T05:02:41;94575.27;;;10.21;68.19
5777;BME280;2914;42.668;23.346;2023-04-29T05:05:10;94570.48;;;10.30;67.46
5777;BME280;2914;42.668;23.346;2023-04-29T05:07:39;94557.16;;;9.83;67.97
5777;BME280;2914;42.668;23.346;2023-04-29T05:10:10;94543.95;;;9.54;68.55
5777;BME280;2914;42.668;23.346;2023-04-29T05:12:39;94549.52;;;9.60;69.11
5777;BME280;2914;42.668;23.346;2023-04-29T05:15:09;94556.69;;;9.48;70.29
5777;BME280;2914;42.668;23.346;2023-04-29T05:17:39;94556.69;;;9.48;70.29
5777;BME280;2914;42.668;23.346;2023-04-29T05:20:10;94550.78;;;9.85;69.14
5777;BME280;2914;42.668;23.346;2023-04-29T05:22:39;94545.34;;;9.48;68.92
5777;BME280;2914;42.668;23.346;2023-04-29T05:25:09;94532.84;;;8.99;70.96
5777;BME280;2914;42.668;23.346;2023-04-29T05:27:38;94522.41;;;9.04;70.04
5777;BME280;2914;42.668;23.346;2023-04-29T05:30:09;94522.41;;;9.04;70.04
5777;BME280;2914;42.668;23.346;2023-04-29T05:32:38;94524.62;;;9.24;69.84
5777;BME280;2914;42.668;23.346;2023-04-29T05:35:09;94528.14;;;9.44;69.76
5777;BME280;2914;42.668;23.346;2023-04-29T05:37:38;94528.14;;;9.44;69.76
5777;BME280;2914;42.668;23.346;2023-04-29T05:40:12;94533.08;;;9.62;69.68
5777;BME280;2914;42.668;23.346;2023-04-29T05:42:41;94534.08;;;10.00;67.07
5777;BME280;2914;42.668;23.346;2023-04-29T05:45:11;94537.18;;;9.90;64.70
5777;BME280;2914;42.668;23.346;2023-04-29T05:47:40;94526.58;;;10.15;64.69
5777;BME280;2914;42.668;23.346;2023-04-29T05:50:10;94521.89;;;10.33;63.84
5777;BME280;2914;42.668;23.346;2023-04-29T05:52:39;94525.78;;;10.29;63.79
5777;BME280;2914;42.668;23.346;2023-04-29T05:55:09;94530.02;;;10.55;63.56
5777;BME280;2914;42.668;23.346;2023-04-29T05:57:38;94525.16;;;10.74;62.97
5777;BME280;2914;42.668;23.346;2023-04-29T06:00:10;94543.58;;;10.94;62.14
5777;BME280;2914;42.668;23.346;2023-04-29T06:02:39;94541.30;;;11.09;60.96
5777;BME280;2914;42.668;23.346;2023-04-29T06:05:10;94545.10;;;11.52;62.55
5777;BME280;2914;42.668;23.346;2023-04-29T06:07:40;94540.90;;;11.91;61.66
5777;BME280;2914;42.668;23.346;2023-04-29T06:10:10;94541.88;;;12.26;58.93
5777;BME280;2914;42.668;23.346;2023-04-29T06:12:39;94536.97;;;12.53;57.40
5777;BME280;2914;42.668;23.346;2023-04-29T06:15:09;94536.81;;;12.55;55.53
5777;BME280;2914;42.668;23.346;2023-04-29T06:17:38;94539.09;;;12.76;55.35
5777;BME280;2914;42.668;23.346;2023-04-29T06:20:10;94522.95;;;12.57;54.80
5777;BME280;2914;42.668;23.346;2023-04-29T06:22:39;94534.59;;;12.68;55.52
5777;BME280;2914;42.668;23.346;2023-04-29T06:25:09;94536.02;;;13.15;53.88
5777;BME280;2914;42.668;23.346;2023-04-29T06:27:38;94534.66;;;13.42;53.00
5777;BME280;2914;42.668;23.346;2023-04-29T06:30:10;94535.76;;;13.78;53.27
5777;BME280;2914;42.668;23.346;2023-04-29T06:32:39;94532.33;;;13.98;51.89
5777;BME280;2914;42.668;23.346;2023-04-29T06:35:09;94535.34;;;14.23;51.27
5777;BME280;2914;42.668;23.346;2023-04-29T06:37:38;94537.33;;;14.46;51.15
5777;BME280;2914;42.668;23.346;2023-04-29T06:40:10;94540.66;;;14.56;49.66
5777;BME280;2914;42.668;23.346;2023-04-29T06:42:39;94535.67;;;14.70;49.20
5777;BME280;2914;42.668;23.346;2023-04-29T06:45:09;94534.33;;;14.82;48.88
5777;BME280;2914;42.668;23.346;2023-04-29T06:47:38;94532.68;;;14.89;48.25
5777;BME280;2914;42.668;23.346;2023-04-29T06:50:09;94534.97;;;15.01;48.70
5777;BME280;2914;42.668;23.346;2023-04-29T06:52:38;94533.80;;;15.07;47.57
5777;BME280;2914;42.668;23.346;2023-04-29T06:55:08;94533.95;;;15.10;47.31
5777;BME280;2914;42.668;23.346;2023-04-29T06:57:39;94531.95;;;15.12;46.92
5777;BME280;2914;42.668;23.346;2023-04-29T07:00:10;94537.72;;;15.28;47.08
5777;BME280;2914;42.668;23.346;2023-04-29T07:02:39;94538.66;;;15.43;46.65
5777;BME280;2914;42.668;23.346;2023-04-29T07:05:09;94528.81;;;15.48;46.77
5777;BME280;2914;42.668;23.346;2023-04-29T07:07:39;94527.69;;;15.42;45.98
5777;BME280;2914;42.668;23.346;2023-04-29T07:10:09;94528.11;;;15.19;46.28
5777;BME280;2914;42.668;23.346;2023-04-29T07:12:38;94524.19;;;14.94;46.99
5777;BME280;2914;42.668;23.346;2023-04-29T07:15:09;94514.95;;;14.28;48.52
5777;BME280;2914;42.668;23.346;2023-04-29T07:17:38;94517.42;;;13.37;50.67
5777;BME280;2914;42.668;23.346;2023-04-29T07:20:09;94516.00;;;13.60;51.40
5777;BME280;2914;42.668;23.346;2023-04-29T07:22:39;94525.02;;;13.96;50.24
5777;BME280;2914;42.668;23.346;2023-04-29T07:25:08;94520.75;;;14.15;49.32
5777;BME280;2914;42.668;23.346;2023-04-29T07:27:38;94522.22;;;13.38;51.13
5777;BME280;2914;42.668;23.346;2023-04-29T07:30:09;94518.98;;;13.18;51.84
5777;BME280;2914;42.668;23.346;2023-04-29T07:32:38;94519.03;;;13.30;52.52
5777;BME280;2914;42.668;23.346;2023-04-29T07:35:08;94520.27;;;13.44;52.21
5777;BME280;2914;42.668;23.346;2023-04-29T07:37:37;94520.33;;;13.22;51.70
5777;BME280;2914;42.668;23.346;2023-04-29T07:40:08;94525.12;;;13.22;51.89
5777;BME280;2914;42.668;23.346;2023-04-29T07:42:37;94517.12;;;13.49;52.18
5777;BME280;2914;42.668;23.346;2023-04-29T07:45:08;94518.27;;;14.05;52.09
5777;BME280;2914;42.668;23.346;2023-04-29T07:47:38;94522.27;;;14.63;51.28
5777;BME280;2914;42.668;23.346;2023-04-29T07:50:08;94522.89;;;14.53;48.98
5777;BME280;2914;42.668;23.346;2023-04-29T07:52:38;94518.28;;;14.71;49.34
5777;BME280;2914;42.668;23.346;2023-04-29T07:55:09;94513.05;;;14.99;49.15
5777;BME280;2914;42.668;23.346;2023-04-29T07:57:38;94509.12;;;15.30;47.96
5777;BME280;2914;42.668;23.346;2023-04-29T08:00:09;94505.09;;;15.42;47.16
5777;BME280;2914;42.668;23.346;2023-04-29T08:02:39;94502.33;;;15.63;45.79
5777;BME280;2914;42.668;23.346;2023-04-29T08:05:09;94499.23;;;15.91;45.93
5777;BME280;2914;42.668;23.346;2023-04-29T08:07:38;94496.73;;;16.13;44.99
5777;BME280;2914;42.668;23.346;2023-04-29T08:10:11;94492.70;;;16.40;45.17
5777;BME280;2914;42.668;23.346;2023-04-29T08:12:40;94498.57;;;16.35;44.32
5777;BME280;2914;42.668;23.346;2023-04-29T08:15:10;94500.89;;;15.88;44.14
5777;BME280;2914;42.668;23.346;2023-04-29T08:17:39;94504.89;;;15.48;45.70
5777;BME280;2914;42.668;23.346;2023-04-29T08:20:11;94499.20;;;15.24;45.63
5777;BME280;2914;42.668;23.346;2023-04-29T08:22:41;94494.48;;;14.90;45.82
5777;BME280;2914;42.668;23.346;2023-04-29T08:25:11;94484.25;;;14.67;46.60
5777;BME280;2914;42.668;23.346;2023-04-29T08:27:40;94484.36;;;14.94;46.29
5777;BME280;2914;42.668;23.346;2023-04-29T08:30:13;94479.03;;;14.98;46.54
5777;BME280;2914;42.668;23.346;2023-04-29T08:32:42;94485.56;;;14.75;46.11
5777;BME280;2914;42.668;23.346;2023-04-29T08:35:11;94483.79;;;15.11;46.29
5777;BME280;2914;42.668;23.346;2023-04-29T08:37:40;94482.48;;;15.47;45.17
5777;BME280;2914;42.668;23.346;2023-04-29T08:40:13;94483.63;;;15.84;44.41
5777;BME280;2914;42.668;23.346;2023-04-29T08:42:44;94481.58;;;15.63;41.24
5777;BME280;2914;42.668;23.346;2023-04-29T08:45:13;94482.32;;;15.75;41.49
5777;BME280;2914;42.668;23.346;2023-04-29T08:47:44;94477.88;;;15.72;41.86
5777;BME280;2914;42.668;23.346;2023-04-29T08:50:14;94480.01;;;15.01;41.93
5777;BME280;2914;42.668;23.346;2023-04-29T08:52:43;94472.41;;;14.94;41.88
5777;BME280;2914;42.668;23.346;2023-04-29T08:55:12;94470.55;;;14.99;41.83
5777;BME280;2914;42.668;23.346;2023-04-29T08:57:43;94470.25;;;14.98;41.21
5777;BME280;2914;42.668;23.346;2023-04-29T09:00:14;94462.18;;;15.22;42.03
5777;BME280;2914;42.668;23.346;2023-04-29T09:02:48;94461.28;;;15.34;41.55
5777;BME280;2914;42.668;23.346;2023-04-29T09:05:18;94460.17;;;15.56;41.57
5777;BME280;2914;42.668;23.346;2023-04-29T09:07:48;94457.73;;;15.77;41.23
5777;BME280;2914;42.668;23.346;2023-04-29T09:10:18;94458.97;;;15.94;40.26
5777;BME280;2914;42.668;23.346;2023-04-29T09:12:47;94451.23;;;16.07;40.18
5777;BME280;2914;42.668;23.346;2023-04-29T09:15:18;94454.32;;;16.34;40.23
5777;BME280;2914;42.668;23.346;2023-04-29T09:17:48;94450.30;;;16.38;40.09
5777;BME280;2914;42.668;23.346;2023-04-29T09:20:27;94437.80;;;16.39;40.01
5777;BME280;2914;42.668;23.346;2023-04-29T09:22:59;94444.45;;;16.39;40.09
5777;BME280;2914;42.668;23.346;2023-04-29T09:25:28;94432.32;;;16.40;40.83
5777;BME280;2914;42.668;23.346;2023-04-29T09:27:58;94437.38;;;16.50;41.04
5777;BME280;2914;42.668;23.346;2023-04-29T09:30:28;94437.83;;;16.20;39.70
5777;BME280;2914;42.668;23.346;2023-04-29T09:33:08;94437.78;;;15.82;40.33
5777;BME280;2914;42.668;23.346;2023-04-29T09:35:39;94426.30;;;15.81;40.36
5777;BME280;2914;42.668;23.346;2023-04-29T09:38:13;94424.00;;;16.01;40.96
5777;BME280;2914;42.668;23.346;2023-04-29T09:40:43;94420.42;;;16.32;41.43
5777;BME280;2914;42.668;23.346;2023-04-29T09:43:14;94417.38;;;16.54;41.84
5777;BME280;2914;42.668;23.346;2023-04-29T09:45:46;94414.81;;;16.61;41.62
5777;BME280;2914;42.668;23.346;2023-04-29T09:48:16;94413.97;;;16.75;40.26
5777;BME280;2914;42.668;23.346;2023-04-29T09:50:58;94414.34;;;16.91;39.35
5777;BME280;2914;42.668;23.346;2023-04-29T09:53:27;94410.82;;;17.06;39.61
5777;BME280;2914;42.668;23.346;2023-04-29T09:56:01;94403.70;;;17.28;39.55
5777;BME280;2914;42.668;23.346;2023-04-29T09:58:31;94400.05;;;17.40;38.73
5777;BME280;2914;42.668;23.346;2023-04-29T10:01:03;94396.00;;;17.44;38.74
5777;BME280;2914;42.668;23.346;2023-04-29T10:03:34;94398.80;;;17.46;39.45
5777;BME280;2914;42.668;23.346;2023-04-29T10:06:05;94390.80;;;17.46;38.84
5777;BME280;2914;42.668;23.346;2023-04-29T10:08:35;94388.20;;;17.42;37.98
5777;BME280;2914;42.668;23.346;2023-04-29T10:11:04;94386.34;;;17.43;38.22
5777;BME280;2914;42.668;23.346;2023-04-29T10:13:35;94383.30;;;17.35;37.58
5777;BME280;2914;42.668;23.346;2023-04-29T10:16:12;94379.93;;;17.37;38.64
5777;BME280;2914;42.668;23.346;2023-04-29T10:18:43;94379.11;;;17.37;38.39
5777;BME280;2914;42.668;23.346;2023-04-29T10:21:13;94377.59;;;17.38;38.32
5777;BME280;2914;42.668;23.346;2023-04-29T10:23:44;94372.88;;;17.40;38.30
5777;BME280;2914;42.668;23.346;2023-04-29T10:26:14;94367.25;;;17.39;38.16
5777;BME280;2914;42.668;23.346;2023-04-29T10:28:45;94370.58;;;17.26;37.78
5777;BME280;2914;42.668;23.346;2023-04-29T10:31:17;94362.09;;;17.27;38.73
5777;BME280;2914;42.668;23.346;2023-04-29T10:33:49;94363.59;;;17.25;37.43
5777;BME280;2914;42.668;23.346;2023-04-29T10:36:20;94363.21;;;17.18;37.73
5777;BME280;2914;42.668;23.346;2023-04-29T10:38:52;94364.11;;;17.25;37.13
5777;BME280;2914;42.668;23.346;2023-04-29T10:41:24;94362.20;;;17.29;38.14
5777;BME280;2914;42.668;23.346;2023-04-29T10:43:55;94357.33;;;17.33;38.28
5777;BME280;2914;42.668;23.346;2023-04-29T10:46:26;94362.83;;;17.21;37.50
5777;BME280;2914;42.668;23.346;2023-04-29T10:49:00;94363.04;;;17.30;37.41
5777;BME280;2914;42.668;23.346;2023-04-29T10:51:32;94359.53;;;17.29;37.65
5777;BME280;2914;42.668;23.346;2023-04-29T10:54:06;94364.70;;;17.31;37.49
5777;BME280;2914;42.668;23.346;2023-04-29T10:56:46;94357.96;;;17.24;37.12
5777;BME280;2914;42.668;23.346;2023-04-29T10:59:15;94358.02;;;17.20;36.46
5777;BME280;2914;42.668;23.346;2023-04-29T11:01:47;94355.05;;;17.30;36.51
5777;BME280;2914;42.668;23.346;2023-04-29T11:04:17;94354.41;;;17.39;37.46
5777;BME280;2914;42.668;23.346;2023-04-29T11:06:50;94354.87;;;17.42;37.99
5777;BME280;2914;42.668;23.346;2023-04-29T11:09:24;94350.34;;;17.43;37.50
5777;BME280;2914;42.668;23.346;2023-04-29T11:11:59;94346.81;;;17.46;38.51
5777;BME280;2914;42.668;23.346;2023-04-29T11:14:35;94348.63;;;17.46;36.98
5777;BME280;2914;42.668;23.346;2023-04-29T11:17:08;94347.00;;;17.45;36.96
5777;BME280;2914;42.668;23.346;2023-04-29T11:19:40;94343.61;;;17.36;37.19
5777;BME280;2914;42.668;23.346;2023-04-29T11:22:27;94342.09;;;17.38;36.98
5777;BME280;2914;42.668;23.346;2023-04-29T11:25:00;94345.08;;;17.39;36.03
5777;BME280;2914;42.668;23.346;2023-04-29T11:27:31;94347.05;;;17.30;36.04
5777;BME280;2914;42.668;23.346;2023-04-29T11:30:03;94352.05;;;17.29;35.51
5777;BME280;2914;42.668;23.346;2023-04-29T11:32:34;94348.70;;;17.31;36.04
5777;BME280;2914;42.668;23.346;2023-04-29T11:35:12;94349.25;;;17.26;35.24
5777;BME280;2914;42.668;23.346;2023-04-29T11:37:43;94347.98;;;17.22;34.76
5777;BME280;2914;42.668;23.346;2023-04-29T11:40:13;94342.84;;;17.21;34.82
5777;BME280;2914;42.668;23.346;2023-04-29T11:42:44;94338.57;;;17.16;34.86
5777;BME280;2914;42.668;23.346;2023-04-29T11:45:15;94337.00;;;17.10;34.41
5777;BME280;2914;42.668;23.346;2023-04-29T11:47:46;94332.63;;;17.13;34.45
5777;BME280;2914;42.668;23.346;2023-04-29T11:50:17;94333.49;;;17.10;34.71
5777;BME280;2914;42.668;23.346;2023-04-29T11:52:47;94338.22;;;17.19;34.98
5777;BME280;2914;42.668;23.346;2023-04-29T11:55:17;94335.55;;;17.19;35.10
5777;BME280;2914;42.668;23.346;2023-04-29T11:57:48;94338.59;;;17.26;34.81
5777;BME280;2914;42.668;23.346;2023-04-29T12:00:19;94341.39;;;17.29;35.15
5777;BME280;2914;42.668;23.346;2023-04-29T12:02:48;94334.73;;;17.29;36.21
5777;BME280;2914;42.668;23.346;2023-04-29T12:05:17;94338.84;;;17.21;36.03
5777;BME280;2914;42.668;23.346;2023-04-29T12:07:46;94336.83;;;17.23;36.28
5777;BME280;2914;42.668;23.346;2023-04-29T12:10:17;94333.89;;;17.18;36.44
5777;BME280;2914;42.668;23.346;2023-04-29T12:12:48;94328.05;;;17.18;36.90
5777;BME280;2914;42.668;23.346;2023-04-29T12:15:17;94333.57;;;17.17;37.24
5777;BME280;2914;42.668;23.346;2023-04-29T12:17:47;94330.28;;;17.15;37.29
5777;BME280;2914;42.668;23.346;2023-04-29T12:20:16;94326.45;;;17.13;37.79
5777;BME280;2914;42.668;23.346;2023-04-29T12:22:45;94326.64;;;17.11;37.18
5777;BME280;2914;42.668;23.346;2023-04-29T12:25:15;94329.95;;;17.13;36.97
5777;BME280;2914;42.668;23.346;2023-04-29T12:27:45;94321.58;;;17.17;37.70
5777;BME280;2914;42.668;23.346;2023-04-29T12:30:14;94317.37;;;17.07;39.14
5777;BME280;2914;42.668;23.346;2023-04-29T12:32:45;94308.23;;;17.06;39.83
5777;BME280;2914;42.668;23.346;2023-04-29T12:35:18;94315.36;;;17.09;39.93
5777;BME280;2914;42.668;23.346;2023-04-29T12:37:49;94313.39;;;17.18;39.35
5777;BME280;2914;42.668;23.346;2023-04-29T12:40:19;94309.14;;;17.24;39.53
5777;BME280;2914;42.668;23.346;2023-04-29T12:42:48;94307.44;;;17.16;39.18
5777;BME280;2914;42.668;23.346;2023-04-29T12:45:28;94310.59;;;17.16;39.26
5777;BME280;2914;42.668;23.346;2023-04-29T12:47:59;94308.19;;;17.21;39.88
5777;BME280;2914;42.668;23.346;2023-04-29T12:50:30;94299.87;;;17.20;39.23
5777;BME280;2914;42.668;23.346;2023-04-29T12:53:00;94299.33;;;17.24;39.54
5777;BME280;2914;42.668;23.346;2023-04-29T12:55:32;94298.74;;;17.29;39.79
5777;BME280;2914;42.668;23.346;2023-04-29T12:58:02;94303.08;;;17.41;41.21
5777;BME280;2914;42.668;23.346;2023-04-29T13:00:32;94297.41;;;17.40;40.91
5777;BME280;2914;42.668;23.346;2023-04-29T13:03:03;94291.31;;;17.46;40.21
5777;BME280;2914;42.668;23.346;2023-04-29T13:05:35;94290.43;;;17.50;40.06
5777;BME280;2914;42.668;23.346;2023-04-29T13:08:05;94289.74;;;17.41;40.57
5777;BME280;2914;42.668;23.346;2023-04-29T13:10:34;94294.56;;;17.41;40.75
5777;BME280;2914;42.668;23.346;2023-04-29T13:13:03;94294.17;;;17.44;40.04
5777;BME280;2914;42.668;23.346;2023-04-29T13:15:34;94299.50;;;17.44;40.93
5777;BME280;2914;42.668;23.346;2023-04-29T13:18:05;94297.22;;;17.52;41.00
5777;BME280;2914;42.668;23.346;2023-04-29T13:20:34;94294.36;;;17.54;40.90
5777;BME280;2914;42.668;23.346;2023-04-29T13:23:03;94297.97;;;17.57;41.33
5777;BME280;2914;42.668;23.346;2023-04-29T13:25:33;94295.11;;;17.58;41.79
5777;BME280;2914;42.668;23.346;2023-04-29T13:28:02;94298.49;;;17.56;41.42